sensor_id;sensor_type;location;lat;lon;timestamp;pressure;altitude;pressure_sealevel;temperature;humidity
49709;BME280;35601;55.902;13.606;2023-05-01T00:01:24;101251.19;;;-1.00;63.89
49709;BME280;35601;55.902;13.606;2023-05-01T00:03:50;101249.53;;;-1.53;65.09
49709;BME280;35601;55.902;13.606;2023-05-01T00:06:16;101253.32;;;-1.62;64.95
49709;BME280;35601;55.902;13.606;2023-05-01T00:08:41;101255.35;;;-1.38;64.99
49709;BME280;35601;55.902;13.606;2023-05-01T00:11:06;101252.26;;;-1.37;65.72
49709;BME280;35601;55.902;13.606;2023-05-01T00:13:31;101250.56;;;-1.34;65.90
49709;BME280;35601;55.902;13.606;2023-05-01T00:15:56;101250.14;;;-1.10;66.11
49709;BME280;35601;55.902;13.606;2023-05-01T00:18:21;101249.24;;;-1.38;66.31
49709;BME280;35601;55.902;13.606;2023-05-01T00:20:48;101247.27;;;-1.37;66.20
49709;BME280;35601;55.902;13.606;2023-05-01T00:23:12;101242.06;;;-1.26;65.99
49709;BME280;35601;55.902;13.606;2023-05-01T00:25:37;101237.57;;;-1.25;65.75
49709;BME280;35601;55.902;13.606;2023-05-01T00:28:03;101232.80;;;-1.19;65.46
49709;BME280;35601;55.902;13.606;2023-05-01T00:30:30;101228.92;;;-1.15;65.35
49709;BME280;35601;55.902;13.606;2023-05-01T00:32:53;101224.61;;;-1.35;65.27
49709;BME280;35601;55.902;13.606;2023-05-01T00:35:18;101225.12;;;-1.14;65.21
49709;BME280;35601;55.902;13.606;2023-05-01T00:37:45;101225.31;;;-1.23;65.86
49709;BME280;35601;55.902;13.606;2023-05-01T00:40:11;101220.09;;;-1.19;66.13
49709;BME280;35601;55.902;13.606;2023-05-01T00:42:34;101218.78;;;-1.09;65.87
49709;BME280;35601;55.902;13.606;2023-05-01T00:45:00;101216.11;;;-1.09;65.81
49709;BME280;35601;55.902;13.606;2023-05-01T00:47:25;101211.19;;;-1.07;65.64
49709;BME280;35601;55.902;13.606;2023-05-01T00:49:53;101210.57;;;-1.40;65.65
49709;BME280;35601;55.902;13.606;2023-05-01T00:52:16;101211.87;;;-1.15;64.77
49709;BME280;35601;55.902;13.606;2023-05-01T00:54:42;101208.78;;;-1.26;64.59
49709;BME280;35601;55.902;13.606;2023-05-01T00:57:06;101207.93;;;-2.56;65.93
49709;BME280;35601;55.902;13.606;2023-05-01T00:59:32;101207.26;;;-1.33;65.61
49709;BME280;35601;55.902;13.606;2023-05-01T01:01:57;101204.67;;;-1.11;65.77
49709;BME280;35601;55.902;13.606;2023-05-01T01:04:23;101205.61;;;-1.14;65.70
49709;BME280;35601;55.902;13.606;2023-05-01T01:06:53;101204.94;;;-1.23;65.85
49709;BME280;35601;55.902;13.606;2023-05-01T01:09:24;101200.75;;;-1.18;65.55
49709;BME280;35601;55.902;13.606;2023-05-01T01:11:45;101198.21;;;-1.21;65.09
49709;BME280;35601;55.902;13.606;2023-05-01T01:14:10;101193.81;;;-1.27;64.82
49709;BME280;35601;55.902;13.606;2023-05-01T01:16:33;101189.13;;;-1.30;64.93
49709;BME280;35601;55.902;13.606;2023-05-01T01:19:00;101185.25;;;-1.56;64.50
49709;BME280;35601;55.902;13.606;2023-05-01T01:21:26;101185.66;;;-1.76;65.27
49709;BME280;35601;55.902;13.606;2023-05-01T01:24:06;101179.99;;;-1.76;65.36
49709;BME280;35601;55.902;13.606;2023-05-01T01:26:28;101179.14;;;-1.86;65.54
49709;BME280;35601;55.902;13.606;2023-05-01T01:31:09;101175.24;;;-1.65;65.80
49709;BME280;35601;55.902;13.606;2023-05-01T01:35:55;101171.92;;;-1.95;66.94
49709;BME280;35601;55.902;13.606;2023-05-01T01:38:23;101170.23;;;-2.27;68.07
49709;BME280;35601;55.902;13.606;2023-05-01T01:40:49;101169.82;;;-2.15;68.11
49709;BME280;35601;55.902;13.606;2023-05-01T01:43:11;101170.68;;;-1.90;67.90
49709;BME280;35601;55.902;13.606;2023-05-01T01:45:38;101172.68;;;-1.94;68.86
49709;BME280;35601;55.902;13.606;2023-05-01T01:48:02;101174.26;;;-1.56;68.52
49709;BME280;35601;55.902;13.606;2023-05-01T01:50:28;101173.22;;;-2.01;67.61
49709;BME280;35601;55.902;13.606;2023-05-01T01:52:53;101173.07;;;-1.81;67.46
49709;BME280;35601;55.902;13.606;2023-05-01T01:55:21;101171.40;;;-1.58;67.61
49709;BME280;35601;55.902;13.606;2023-05-01T01:57:45;101167.97;;;-1.53;67.54
49709;BME280;35601;55.902;13.606;2023-05-01T02:00:09;101166.68;;;-1.54;66.90
49709;BME280;35601;55.902;13.606;2023-05-01T02:02:32;101163.43;;;-1.81;66.67
49709;BME280;35601;55.902;13.606;2023-05-01T02:04:59;101156.93;;;-1.59;66.60
49709;BME280;35601;55.902;13.606;2023-05-01T02:07:24;101156.57;;;-1.87;66.87
49709;BME280;35601;55.902;13.606;2023-05-01T02:09:50;101151.68;;;-1.65;67.30
49709;BME280;35601;55.902;13.606;2023-05-01T02:12:17;101149.89;;;-1.62;67.64
49709;BME280;35601;55.902;13.606;2023-05-01T02:14:41;101142.32;;;-1.59;67.74
49709;BME280;35601;55.902;13.606;2023-05-01T02:17:06;101140.87;;;-1.65;67.24
49709;BME280;35601;55.902;13.606;2023-05-01T02:19:31;101137.95;;;-1.68;67.13
49709;BME280;35601;55.902;13.606;2023-05-01T02:21:57;101134.59;;;-1.72;67.09
49709;BME280;35601;55.902;13.606;2023-05-01T02:24:24;101127.12;;;-2.04;67.73
49709;BME280;35601;55.902;13.606;2023-05-01T02:26:50;101123.22;;;-1.96;68.51
49709;BME280;35601;55.902;13.606;2023-05-01T02:29:14;101121.87;;;-1.91;68.54
49709;BME280;35601;55.902;13.606;2023-05-01T02:31:39;101123.25;;;-1.93;69.32
49709;BME280;35601;55.902;13.606;2023-05-01T02:34:03;101125.19;;;-1.96;70.22
49709;BME280;35601;55.902;13.606;2023-05-01T02:36:29;101125.11;;;-1.89;70.52
49709;BME280;35601;55.902;13.606;2023-05-01T02:38:56;101119.82;;;-2.12;70.78
49709;BME280;35601;55.902;13.606;2023-05-01T02:41:21;101119.24;;;-2.05;70.60
49709;BME280;35601;55.902;13.606;2023-05-01T02:43:48;101119.97;;;-1.96;70.55
49709;BME280;35601;55.902;13.606;2023-05-01T02:46:12;101117.92;;;-1.56;70.17
49709;BME280;35601;55.902;13.606;2023-05-01T02:48:39;101114.11;;;-1.75;69.30
49709;BME280;35601;55.902;13.606;2023-05-01T02:51:04;101108.59;;;-1.46;68.91
49709;BME280;35601;55.902;13.606;2023-05-01T02:53:29;101107.27;;;-1.67;68.83
49709;BME280;35601;55.902;13.606;2023-05-01T02:55:56;101101.66;;;-1.42;68.75
49709;BME280;35601;55.902;13.606;2023-05-01T02:58:20;101099.70;;;-1.63;68.75
49709;BME280;35601;55.902;13.606;2023-05-01T03:00:48;101093.58;;;-1.59;68.80
49709;BME280;35601;55.902;13.606;2023-05-01T03:03:10;101089.79;;;-1.69;68.61
49709;BME280;35601;55.902;13.606;2023-05-01T03:05:37;101089.09;;;-1.87;68.54
49709;BME280;35601;55.902;13.606;2023-05-01T03:08:02;101088.26;;;-1.37;68.49
49709;BME280;35601;55.902;13.606;2023-05-01T03:10:27;101081.23;;;-1.86;68.73
49709;BME280;35601;55.902;13.606;2023-05-01T03:12:53;101080.15;;;-1.80;68.83
49709;BME280;35601;55.902;13.606;2023-05-01T03:15:17;101079.49;;;-1.51;68.88
49709;BME280;35601;55.902;13.606;2023-05-01T03:17:43;101081.70;;;-1.50;69.16
49709;BME280;35601;55.902;13.606;2023-05-01T03:20:09;101073.82;;;-1.51;69.40
49709;BME280;35601;55.902;13.606;2023-05-01T03:22:34;101071.43;;;-1.42;69.21
49709;BME280;35601;55.902;13.606;2023-05-01T03:25:00;101073.11;;;-1.39;68.80
49709;BME280;35601;55.902;13.606;2023-05-01T03:27:25;101071.45;;;-1.56;68.65
49709;BME280;35601;55.902;13.606;2023-05-01T03:29:50;101072.50;;;-1.35;69.13
49709;BME280;35601;55.902;13.606;2023-05-01T03:32:16;101070.53;;;-1.50;69.06
49709;BME280;35601;55.902;13.606;2023-05-01T03:34:41;101069.23;;;-1.44;68.83
49709;BME280;35601;55.902;13.606;2023-05-01T03:37:07;101069.64;;;-1.39;68.93
49709;BME280;35601;55.902;13.606;2023-05-01T03:39:32;101071.45;;;-1.34;69.27
49709;BME280;35601;55.902;13.606;2023-05-01T03:41:58;101069.22;;;-1.32;69.03
49709;BME280;35601;55.902;13.606;2023-05-01T03:44:23;101068.90;;;-1.32;69.18
49709;BME280;35601;55.902;13.606;2023-05-01T03:46:49;101069.65;;;-1.32;68.98
49709;BME280;35601;55.902;13.606;2023-05-01T03:49:13;101070.74;;;-1.29;68.93
49709;BME280;35601;55.902;13.606;2023-05-01T03:51:39;101071.42;;;-1.31;69.29
49709;BME280;35601;55.902;13.606;2023-05-01T03:54:05;101073.87;;;-1.34;69.64
49709;BME280;35601;55.902;13.606;2023-05-01T03:56:30;101073.87;;;-1.33;70.32
49709;BME280;35601;55.902;13.606;2023-05-01T03:59:00;101069.30;;;-1.28;70.98
49709;BME280;35601;55.902;13.606;2023-05-01T04:01:21;101069.82;;;-1.14;71.00
49709;BME280;35601;55.902;13.606;2023-05-01T04:03:46;101071.03;;;-1.10;71.63
49709;BME280;35601;55.902;13.606;2023-05-01T04:06:12;101073.82;;;-1.02;72.12
49709;BME280;35601;55.902;13.606;2023-05-01T04:08:37;101074.09;;;-0.92;72.32
49709;BME280;35601;55.902;13.606;2023-05-01T04:11:03;101071.75;;;-0.73;72.05
49709;BME280;35601;55.902;13.606;2023-05-01T04:13:28;101070.03;;;-0.64;72.08
49709;BME280;35601;55.902;13.606;2023-05-01T04:15:54;101062.90;;;-0.68;71.74
49709;BME280;35601;55.902;13.606;2023-05-01T04:18:20;101065.90;;;-0.35;72.02
49709;BME280;35601;55.902;13.606;2023-05-01T04:20:47;101065.31;;;-0.24;72.24
49709;BME280;35601;55.902;13.606;2023-05-01T04:23:12;101064.08;;;-0.36;72.20
49709;BME280;35601;55.902;13.606;2023-05-01T04:25:36;101062.26;;;-0.24;71.87
49709;BME280;35601;55.902;13.606;2023-05-01T04:28:01;101057.38;;;-0.23;71.90
49709;BME280;35601;55.902;13.606;2023-05-01T04:30:27;101050.93;;;0.12;71.84
49709;BME280;35601;55.902;13.606;2023-05-01T04:32:52;101049.39;;;-0.57;72.86
49709;BME280;35601;55.902;13.606;2023-05-01T04:35:18;101051.05;;;-0.22;73.60
49709;BME280;35601;55.902;13.606;2023-05-01T04:37:43;101049.58;;;-0.01;73.69
49709;BME280;35601;55.902;13.606;2023-05-01T04:40:11;101051.16;;;-0.99;73.68
49709;BME280;35601;55.902;13.606;2023-05-01T04:42:34;101047.74;;;0.18;74.50
49709;BME280;35601;55.902;13.606;2023-05-01T04:44:59;101048.73;;;0.43;74.47
49709;BME280;35601;55.902;13.606;2023-05-01T04:47:26;101046.81;;;0.53;74.60
49709;BME280;35601;55.902;13.606;2023-05-01T04:49:51;101044.70;;;0.46;75.48
49709;BME280;35601;55.902;13.606;2023-05-01T04:52:16;101046.24;;;0.36;76.58
49709;BME280;35601;55.902;13.606;2023-05-01T04:54:41;101039.69;;;0.94;77.74
49709;BME280;35601;55.902;13.606;2023-05-01T04:57:07;101038.92;;;1.03;78.28
49709;BME280;35601;55.902;13.606;2023-05-01T04:59:32;101036.90;;;1.73;79.14
49709;BME280;35601;55.902;13.606;2023-05-01T05:01:58;101037.42;;;1.64;79.28
49709;BME280;35601;55.902;13.606;2023-05-01T05:04:23;101037.05;;;2.02;78.26
49709;BME280;35601;55.902;13.606;2023-05-01T05:06:49;101031.96;;;1.94;77.50
49709;BME280;35601;55.902;13.606;2023-05-01T05:09:14;101033.82;;;2.25;77.08
49709;BME280;35601;55.902;13.606;2023-05-01T05:11:39;101034.69;;;2.80;76.86
49709;BME280;35601;55.902;13.606;2023-05-01T05:14:05;101031.40;;;2.95;77.10
49709;BME280;35601;55.902;13.606;2023-05-01T05:16:30;101031.40;;;3.30;76.51
49709;BME280;35601;55.902;13.606;2023-05-01T05:18:56;101029.73;;;3.49;76.44
49709;BME280;35601;55.902;13.606;2023-05-01T05:21:21;101023.98;;;3.54;78.07
49709;BME280;35601;55.902;13.606;2023-05-01T05:23:47;101027.17;;;3.33;79.13
49709;BME280;35601;55.902;13.606;2023-05-01T05:26:12;101028.35;;;3.45;79.17
49709;BME280;35601;55.902;13.606;2023-05-01T05:28:38;101029.31;;;3.15;79.96
49709;BME280;35601;55.902;13.606;2023-05-01T05:31:04;101031.24;;;3.31;80.13
49709;BME280;35601;55.902;13.606;2023-05-01T05:33:29;101031.16;;;3.12;80.78
49709;BME280;35601;55.902;13.606;2023-05-01T05:35:57;101030.29;;;3.01;81.33
49709;BME280;35601;55.902;13.606;2023-05-01T05:38:21;101031.28;;;3.21;81.34
49709;BME280;35601;55.902;13.606;2023-05-01T05:40:45;101029.41;;;3.29;80.91
49709;BME280;35601;55.902;13.606;2023-05-01T05:43:11;101029.13;;;3.29;80.19
49709;BME280;35601;55.902;13.606;2023-05-01T05:45:36;101031.36;;;3.51;80.34
49709;BME280;35601;55.902;13.606;2023-05-01T05:48:01;101023.19;;;3.52;81.25
49709;BME280;35601;55.902;13.606;2023-05-01T05:50:27;101025.27;;;3.55;83.01
49709;BME280;35601;55.902;13.606;2023-05-01T05:52:52;101027.62;;;3.87;81.55
49709;BME280;35601;55.902;13.606;2023-05-01T05:55:18;101028.08;;;4.24;80.62
49709;BME280;35601;55.902;13.606;2023-05-01T05:57:44;101029.08;;;4.78;79.12
49709;BME280;35601;55.902;13.606;2023-05-01T06:00:10;101030.21;;;5.17;77.11
49709;BME280;35601;55.902;13.606;2023-05-01T06:02:34;101021.45;;;5.22;75.75
49709;BME280;35601;55.902;13.606;2023-05-01T06:05:00;101021.76;;;5.49;73.31
49709;BME280;35601;55.902;13.606;2023-05-01T06:07:26;101019.76;;;5.49;71.78
49709;BME280;35601;55.902;13.606;2023-05-01T06:09:51;101018.08;;;6.04;71.19
49709;BME280;35601;55.902;13.606;2023-05-01T06:12:16;101020.23;;;5.66;70.32
49709;BME280;35601;55.902;13.606;2023-05-01T06:14:43;101020.03;;;6.36;72.25
49709;BME280;35601;55.902;13.606;2023-05-01T06:17:08;101022.81;;;5.73;69.96
49709;BME280;35601;55.902;13.606;2023-05-01T06:19:34;101020.02;;;5.76;70.21
49709;BME280;35601;55.902;13.606;2023-05-01T06:22:00;101022.22;;;5.48;70.22
49709;BME280;35601;55.902;13.606;2023-05-01T06:24:26;101025.09;;;5.43;70.17
49709;BME280;35601;55.902;13.606;2023-05-01T06:26:50;101024.63;;;5.55;70.31
49709;BME280;35601;55.902;13.606;2023-05-01T06:29:15;101023.06;;;5.79;70.21
49709;BME280;35601;55.902;13.606;2023-05-01T06:31:42;101022.49;;;5.87;68.61
49709;BME280;35601;55.902;13.606;2023-05-01T06:34:07;101019.95;;;5.86;69.10
49709;BME280;35601;55.902;13.606;2023-05-01T06:36:32;101016.41;;;5.55;66.80
49709;BME280;35601;55.902;13.606;2023-05-01T06:38:58;101021.13;;;6.14;67.37
49709;BME280;35601;55.902;13.606;2023-05-01T06:41:25;101021.24;;;5.95;67.03
49709;BME280;35601;55.902;13.606;2023-05-01T06:43:49;101017.64;;;6.19;65.18
49709;BME280;35601;55.902;13.606;2023-05-01T06:46:14;101013.39;;;6.65;64.64
49709;BME280;35601;55.902;13.606;2023-05-01T06:48:39;101009.26;;;6.87;64.97
49709;BME280;35601;55.902;13.606;2023-05-01T06:51:05;101006.34;;;6.92;63.21
49709;BME280;35601;55.902;13.606;2023-05-01T06:53:30;101001.51;;;6.78;61.00
49709;BME280;35601;55.902;13.606;2023-05-01T06:55:56;101001.44;;;7.19;59.94
49709;BME280;35601;55.902;13.606;2023-05-01T06:58:21;101004.33;;;7.40;59.67
49709;BME280;35601;55.902;13.606;2023-05-01T07:00:46;101000.34;;;7.61;57.23
49709;BME280;35601;55.902;13.606;2023-05-01T07:03:11;100998.69;;;7.43;56.72
49709;BME280;35601;55.902;13.606;2023-05-01T07:05:37;100999.29;;;7.44;56.79
49709;BME280;35601;55.902;13.606;2023-05-01T07:08:03;100998.20;;;7.53;57.15
49709;BME280;35601;55.902;13.606;2023-05-01T07:10:28;101000.89;;;8.05;54.56
49709;BME280;35601;55.902;13.606;2023-05-01T07:12:54;101000.39;;;8.12;56.07
49709;BME280;35601;55.902;13.606;2023-05-01T07:15:20;100996.35;;;7.98;54.38
49709;BME280;35601;55.902;13.606;2023-05-01T07:17:47;100997.46;;;8.09;53.38
49709;BME280;35601;55.902;13.606;2023-05-01T07:20:11;100990.11;;;8.24;54.90
49709;BME280;35601;55.902;13.606;2023-05-01T07:22:36;100989.03;;;7.92;53.27
49709;BME280;35601;55.902;13.606;2023-05-01T07:25:01;100984.08;;;8.54;52.21
49709;BME280;35601;55.902;13.606;2023-05-01T07:27:27;100980.75;;;8.77;52.56
49709;BME280;35601;55.902;13.606;2023-05-01T07:29:54;100975.57;;;8.80;51.26
49709;BME280;35601;55.902;13.606;2023-05-01T07:32:18;100972.34;;;8.72;52.36
49709;BME280;35601;55.902;13.606;2023-05-01T07:34:43;100964.83;;;8.94;52.23
49709;BME280;35601;55.902;13.606;2023-05-01T07:37:08;100964.20;;;9.23;49.52
49709;BME280;35601;55.902;13.606;2023-05-01T07:39:34;100961.45;;;9.10;49.85
49709;BME280;35601;55.902;13.606;2023-05-01T07:41:59;100957.43;;;9.23;48.95
49709;BME280;35601;55.902;13.606;2023-05-01T07:44:25;100961.67;;;8.76;49.13
49709;BME280;35601;55.902;13.606;2023-05-01T07:46:50;100960.04;;;8.65;49.58
49709;BME280;35601;55.902;13.606;2023-05-01T07:49:15;100958.21;;;8.64;51.31
49709;BME280;35601;55.902;13.606;2023-05-01T07:51:41;100949.88;;;8.78;48.44
49709;BME280;35601;55.902;13.606;2023-05-01T07:54:06;100943.56;;;9.35;48.57
49709;BME280;35601;55.902;13.606;2023-05-01T07:56:32;100940.30;;;9.79;46.53
49709;BME280;35601;55.902;13.606;2023-05-01T07:58:58;100937.54;;;9.49;44.41
49709;BME280;35601;55.902;13.606;2023-05-01T08:01:23;100935.20;;;10.24;45.82
49709;BME280;35601;55.902;13.606;2023-05-01T08:03:50;100933.70;;;10.11;44.92
49709;BME280;35601;55.902;13.606;2023-05-01T08:06:14;100932.89;;;9.69;44.35
49709;BME280;35601;55.902;13.606;2023-05-01T08:08:39;100933.39;;;9.73;45.25
49709;BME280;35601;55.902;13.606;2023-05-01T08:11:04;100933.83;;;9.68;43.50
49709;BME280;35601;55.902;13.606;2023-05-01T08:13:30;100930.75;;;10.65;42.07
49709;BME280;35601;55.902;13.606;2023-05-01T08:16:00;100930.73;;;10.37;42.26
49709;BME280;35601;55.902;13.606;2023-05-01T08:18:21;100932.82;;;10.13;43.49
49709;BME280;35601;55.902;13.606;2023-05-01T08:20:48;100929.07;;;10.14;43.26
49709;BME280;35601;55.902;13.606;2023-05-01T08:23:11;100924.98;;;9.85;42.68
49709;BME280;35601;55.902;13.606;2023-05-01T08:25:37;100926.52;;;10.14;44.17
49709;BME280;35601;55.902;13.606;2023-05-01T08:28:03;100926.87;;;10.13;44.28
49709;BME280;35601;55.902;13.606;2023-05-01T08:30:28;100924.88;;;10.61;42.79
49709;BME280;35601;55.902;13.606;2023-05-01T08:32:54;100917.71;;;10.68;41.21
49709;BME280;35601;55.902;13.606;2023-05-01T08:35:19;100914.59;;;10.68;42.65
49709;BME280;35601;55.902;13.606;2023-05-01T08:37:44;100910.45;;;10.81;41.47
49709;BME280;35601;55.902;13.606;2023-05-01T08:40:10;100906.65;;;10.97;40.85
49709;BME280;35601;55.902;13.606;2023-05-01T08:42:35;100902.92;;;10.98;39.79
49709;BME280;35601;55.902;13.606;2023-05-01T08:45:01;100905.71;;;10.89;40.39
49709;BME280;35601;55.902;13.606;2023-05-01T08:47:26;100907.11;;;11.10;41.74
49709;BME280;35601;55.902;13.606;2023-05-01T08:49:51;100903.57;;;10.80;40.16
49709;BME280;35601;55.902;13.606;2023-05-01T08:52:17;100899.85;;;11.14;41.17
49709;BME280;35601;55.902;13.606;2023-05-01T08:54:43;100898.62;;;10.95;40.90
49709;BME280;35601;55.902;13.606;2023-05-01T08:57:09;100894.34;;;10.45;41.17
49709;BME280;35601;55.902;13.606;2023-05-01T08:59:33;100894.82;;;11.04;42.98
49709;BME280;35601;55.902;13.606;2023-05-01T09:02:00;100889.55;;;11.33;41.03
49709;BME280;35601;55.902;13.606;2023-05-01T09:04:23;100889.47;;;11.04;40.28
49709;BME280;35601;55.902;13.606;2023-05-01T09:06:48;100881.91;;;11.14;41.76
49709;BME280;35601;55.902;13.606;2023-05-01T09:09:13;100880.49;;;11.70;41.46
49709;BME280;35601;55.902;13.606;2023-05-01T09:11:39;100877.84;;;11.58;40.25
49709;BME280;35601;55.902;13.606;2023-05-01T09:14:04;100873.40;;;11.09;40.59
49709;BME280;35601;55.902;13.606;2023-05-01T09:16:29;100871.52;;;11.08;41.29
49709;BME280;35601;55.902;13.606;2023-05-01T09:18:56;100871.59;;;11.11;40.65
49709;BME280;35601;55.902;13.606;2023-05-01T09:21:19;100867.92;;;11.16;40.77
49709;BME280;35601;55.902;13.606;2023-05-01T09:23:44;100870.35;;;11.77;41.59
49709;BME280;35601;55.902;13.606;2023-05-01T09:26:10;100864.41;;;11.90;39.72
49709;BME280;35601;55.902;13.606;2023-05-01T09:28:39;100862.11;;;12.10;38.76
49709;BME280;35601;55.902;13.606;2023-05-01T09:33:26;100861.61;;;11.66;40.35
49709;BME280;35601;55.902;13.606;2023-05-01T09:35:53;100858.82;;;11.79;39.52
49709;BME280;35601;55.902;13.606;2023-05-01T09:38:19;100861.29;;;11.49;41.68
49709;BME280;35601;55.902;13.606;2023-05-01T09:40:42;100858.11;;;11.46;40.08
49709;BME280;35601;55.902;13.606;2023-05-01T09:43:08;100859.03;;;11.61;41.72
49709;BME280;35601;55.902;13.606;2023-05-01T09:45:33;100854.65;;;11.22;40.52
49709;BME280;35601;55.902;13.606;2023-05-01T09:48:07;100851.65;;;10.71;41.91
49709;BME280;35601;55.902;13.606;2023-05-01T09:50:28;100851.00;;;11.74;43.01
49709;BME280;35601;55.902;13.606;2023-05-01T09:52:50;100849.50;;;11.77;41.13
49709;BME280;35601;55.902;13.606;2023-05-01T09:55:15;100850.83;;;11.97;41.56
49709;BME280;35601;55.902;13.606;2023-05-01T09:57:40;100852.55;;;12.12;41.09
49709;BME280;35601;55.902;13.606;2023-05-01T10:00:06;100852.14;;;12.41;39.70
49709;BME280;35601;55.902;13.606;2023-05-01T10:02:30;100849.88;;;12.30;40.61
49709;BME280;35601;55.902;13.606;2023-05-01T10:04:57;100837.67;;;12.16;39.30
49709;BME280;35601;55.902;13.606;2023-05-01T10:07:21;100841.63;;;12.07;40.15
49709;BME280;35601;55.902;13.606;2023-05-01T10:09:47;100834.25;;;12.53;39.24
49709;BME280;35601;55.902;13.606;2023-05-01T10:17:16;100826.04;;;12.59;39.11
49709;BME280;35601;55.902;13.606;2023-05-01T10:19:30;100819.02;;;13.42;38.22
49709;BME280;35601;55.902;13.606;2023-05-01T10:21:53;100815.01;;;13.25;38.11
49709;BME280;35601;55.902;13.606;2023-05-01T10:24:18;100813.92;;;12.79;38.26
49709;BME280;35601;55.902;13.606;2023-05-01T10:26:47;100814.14;;;13.39;37.41
49709;BME280;35601;55.902;13.606;2023-05-01T10:29:10;100807.23;;;13.54;35.41
49709;BME280;35601;55.902;13.606;2023-05-01T10:31:34;100799.72;;;13.57;37.15
49709;BME280;35601;55.902;13.606;2023-05-01T10:33:59;100799.83;;;13.84;34.63
49709;BME280;35601;55.902;13.606;2023-05-01T10:36:26;100796.31;;;14.71;34.54
49709;BME280;35601;55.902;13.606;2023-05-01T10:38:49;100788.91;;;14.56;35.90
49709;BME280;35601;55.902;13.606;2023-05-01T10:41:15;100791.19;;;14.14;34.44
49709;BME280;35601;55.902;13.606;2023-05-01T10:43:42;100784.93;;;14.68;34.90
49709;BME280;35601;55.902;13.606;2023-05-01T10:51:06;100772.20;;;14.02;34.93
49709;BME280;35601;55.902;13.606;2023-05-01T10:53:21;100770.19;;;14.23;37.81
49709;BME280;35601;55.902;13.606;2023-05-01T10:55:48;100765.47;;;14.73;33.06
49709;BME280;35601;55.902;13.606;2023-05-01T10:58:12;100764.90;;;14.50;33.68
49709;BME280;35601;55.902;13.606;2023-05-01T11:00:36;100760.09;;;14.52;33.52
49709;BME280;35601;55.902;13.606;2023-05-01T11:10:25;100759.25;;;15.21;32.74
49709;BME280;35601;55.902;13.606;2023-05-01T11:12:49;100754.01;;;15.04;32.33
49709;BME280;35601;55.902;13.606;2023-05-01T11:15:07;100745.12;;;14.46;33.31
49709;BME280;35601;55.902;13.606;2023-05-01T11:17:45;100744.02;;;13.79;35.61
49709;BME280;35601;55.902;13.606;2023-05-01T11:19:58;100738.12;;;14.29;34.33
49709;BME280;35601;55.902;13.606;2023-05-01T11:22:25;100737.87;;;14.43;34.53
49709;BME280;35601;55.902;13.606;2023-05-01T11:24:48;100729.55;;;14.57;36.65
49709;BME280;35601;55.902;13.606;2023-05-01T11:27:14;100730.37;;;13.99;35.57
49709;BME280;35601;55.902;13.606;2023-05-01T11:29:43;100729.53;;;14.70;35.33
49709;BME280;35601;55.902;13.606;2023-05-01T11:32:04;100723.00;;;14.63;34.74
49709;BME280;35601;55.902;13.606;2023-05-01T11:34:34;100724.51;;;14.50;35.21
49709;BME280;35601;55.902;13.606;2023-05-01T11:36:56;100722.55;;;14.34;34.70
49709;BME280;35601;55.902;13.606;2023-05-01T11:39:19;100719.49;;;14.25;34.20
49709;BME280;35601;55.902;13.606;2023-05-01T11:41:45;100718.67;;;14.90;31.84
49709;BME280;35601;55.902;13.606;2023-05-01T11:44:11;100712.93;;;15.51;33.82
49709;BME280;35601;55.902;13.606;2023-05-01T11:46:35;100712.64;;;15.46;34.37
49709;BME280;35601;55.902;13.606;2023-05-01T11:49:02;100712.80;;;14.91;32.04
49709;BME280;35601;55.902;13.606;2023-05-01T11:51:27;100708.56;;;15.32;32.85
49709;BME280;35601;55.902;13.606;2023-05-01T11:53:58;100705.99;;;14.74;32.27
49709;BME280;35601;55.902;13.606;2023-05-01T11:56:18;100703.75;;;14.68;32.33
49709;BME280;35601;55.902;13.606;2023-05-01T11:58:41;100702.35;;;14.72;32.05
49709;BME280;35601;55.902;13.606;2023-05-01T12:01:06;100691.93;;;14.21;33.01
49709;BME280;35601;55.902;13.606;2023-05-01T12:03:40;100691.95;;;13.85;35.29
49709;BME280;35601;55.902;13.606;2023-05-01T12:05:57;100688.48;;;13.74;34.38
49709;BME280;35601;55.902;13.606;2023-05-01T12:08:23;100680.89;;;14.04;34.68
49709;BME280;35601;55.902;13.606;2023-05-01T12:10:49;100678.95;;;14.07;35.41
49709;BME280;35601;55.902;13.606;2023-05-01T12:13:14;100675.43;;;13.96;34.69
49709;BME280;35601;55.902;13.606;2023-05-01T12:15:41;100671.89;;;14.27;35.63
49709;BME280;35601;55.902;13.606;2023-05-01T12:18:05;100670.73;;;14.59;35.12
49709;BME280;35601;55.902;13.606;2023-05-01T12:20:36;100669.30;;;14.04;36.21
49709;BME280;35601;55.902;13.606;2023-05-01T12:22:54;100667.56;;;14.30;34.71
49709;BME280;35601;55.902;13.606;2023-05-01T12:25:19;100670.04;;;14.21;34.91
49709;BME280;35601;55.902;13.606;2023-05-01T12:27:45;100660.72;;;14.08;33.63
49709;BME280;35601;55.902;13.606;2023-05-01T12:30:10;100663.41;;;14.42;33.33
49709;BME280;35601;55.902;13.606;2023-05-01T12:32:34;100668.75;;;14.33;34.31
49709;BME280;35601;55.902;13.606;2023-05-01T12:35:13;100668.08;;;14.60;35.65
49709;BME280;35601;55.902;13.606;2023-05-01T12:37:30;100665.22;;;14.40;34.06
49709;BME280;35601;55.902;13.606;2023-05-01T12:39:50;100660.53;;;13.79;34.76
49709;BME280;35601;55.902;13.606;2023-05-01T12:42:15;100656.62;;;14.09;35.02
49709;BME280;35601;55.902;13.606;2023-05-01T12:44:42;100656.01;;;14.05;35.39
49709;BME280;35601;55.902;13.606;2023-05-01T12:47:06;100657.99;;;13.77;36.35
49709;BME280;35601;55.902;13.606;2023-05-01T12:49:32;100654.80;;;13.52;36.82
49709;BME280;35601;55.902;13.606;2023-05-01T12:51:59;100652.86;;;13.49;34.83
49709;BME280;35601;55.902;13.606;2023-05-01T12:54:25;100655.51;;;13.38;34.77
49709;BME280;35601;55.902;13.606;2023-05-01T12:56:47;100649.53;;;13.38;34.93